Terminal Aerodrome Forecast
Issued by NWS Cleveland, OH

Home | Current Version | Previous Version | Text Only | Print | Product List | Glossary Off
Versions: 1 2 3 4 5 6 7 8 9 10 11 12 13 14

000
FTUS41 KCLE 182300
TAFTOL
TAF
KTOL 182340Z 1900/1924 32011KT P6SM SCT025 OVC035
      TEMPO 1900/1903 BKN025
     FM190500 32006KT P6SM BKN035
     FM191200 28006KT P6SM SCT035=

USA.gov is the U.S. government's official web portal to all federal, state and local government web resources and services.